sensor_id;sensor_type;location;lat;lon;timestamp;temperature;humidity
23520;DHT22;11936;50.820;4.336;2022-10-26T00:02:11;16.00;99.90
23520;DHT22;11936;50.820;4.336;2022-10-26T00:04:37;16.10;99.90
23520;DHT22;11936;50.820;4.336;2022-10-26T00:07:28;16.20;99.90
23520;DHT22;11936;50.820;4.336;2022-10-26T00:09:53;16.10;99.90
23520;DHT22;11936;50.820;4.336;2022-10-26T00:12:49;16.00;99.90
23520;DHT22;11936;50.820;4.336;2022-10-26T00:15:15;16.00;99.90
23520;DHT22;11936;50.820;4.336;2022-10-26T00:17:50;16.00;99.90
23520;DHT22;11936;50.820;4.336;2022-10-26T00:20:16;16.10;99.90
23520;DHT22;11936;50.820;4.336;2022-10-26T00:22:54;16.10;99.90
23520;DHT22;11936;50.820;4.336;2022-10-26T00:25:20;16.00;99.90
23520;DHT22;11936;50.820;4.336;2022-10-26T00:27:49;16.10;99.90
23520;DHT22;11936;50.820;4.336;2022-10-26T00:30:14;16.20;99.90
23520;DHT22;11936;50.820;4.336;2022-10-26T00:32:40;16.10;99.90
23520;DHT22;11936;50.820;4.336;2022-10-26T00:35:38;16.10;99.90
23520;DHT22;11936;50.820;4.336;2022-10-26T00:38:09;16.20;99.90
23520;DHT22;11936;50.820;4.336;2022-10-26T00:40:43;16.20;99.90
23520;DHT22;11936;50.820;4.336;2022-10-26T00:45:58;16.30;99.90
23520;DHT22;11936;50.820;4.336;2022-10-26T00:54:18;16.30;99.90
23520;DHT22;11936;50.820;4.336;2022-10-26T00:56:52;16.50;99.90
23520;DHT22;11936;50.820;4.336;2022-10-26T00:59:20;16.50;99.90
23520;DHT22;11936;50.820;4.336;2022-10-26T01:01:56;16.50;99.90
23520;DHT22;11936;50.820;4.336;2022-10-26T01:04:22;16.40;99.90
23520;DHT22;11936;50.820;4.336;2022-10-26T01:06:57;16.30;99.90
23520;DHT22;11936;50.820;4.336;2022-10-26T01:09:33;16.40;99.90
23520;DHT22;11936;50.820;4.336;2022-10-26T01:11:59;16.40;99.90
23520;DHT22;11936;50.820;4.336;2022-10-26T01:14:34;16.40;99.90
23520;DHT22;11936;50.820;4.336;2022-10-26T01:17:32;16.40;99.90
23520;DHT22;11936;50.820;4.336;2022-10-26T01:27:24;16.10;99.90
23520;DHT22;11936;50.820;4.336;2022-10-26T01:35:43;16.20;99.90
23520;DHT22;11936;50.820;4.336;2022-10-26T01:38:28;16.20;99.90
23520;DHT22;11936;50.820;4.336;2022-10-26T01:41:10;16.10;99.90
23520;DHT22;11936;50.820;4.336;2022-10-26T01:43:45;16.20;99.90
23520;DHT22;11936;50.820;4.336;2022-10-26T01:46:12;16.20;99.90
23520;DHT22;11936;50.820;4.336;2022-10-26T01:48:40;16.30;99.90
23520;DHT22;11936;50.820;4.336;2022-10-26T01:51:08;16.30;99.90
23520;DHT22;11936;50.820;4.336;2022-10-26T01:53:35;16.40;99.90
23520;DHT22;11936;50.820;4.336;2022-10-26T01:56:16;16.40;99.90
23520;DHT22;11936;50.820;4.336;2022-10-26T02:07:01;16.30;99.90
23520;DHT22;11936;50.820;4.336;2022-10-26T02:09:40;16.30;99.90
23520;DHT22;11936;50.820;4.336;2022-10-26T02:18:07;16.50;99.90
23520;DHT22;11936;50.820;4.336;2022-10-26T02:20:41;16.50;99.90
23520;DHT22;11936;50.820;4.336;2022-10-26T02:23:09;16.50;99.90
23520;DHT22;11936;50.820;4.336;2022-10-26T02:25:43;16.50;99.90
23520;DHT22;11936;50.820;4.336;2022-10-26T02:28:24;16.50;99.90
23520;DHT22;11936;50.820;4.336;2022-10-26T02:31:06;16.60;99.90
23520;DHT22;11936;50.820;4.336;2022-10-26T02:33:43;16.60;99.90
23520;DHT22;11936;50.820;4.336;2022-10-26T02:36:14;16.50;99.90
23520;DHT22;11936;50.820;4.336;2022-10-26T02:41:33;16.50;99.90
23520;DHT22;11936;50.820;4.336;2022-10-26T02:44:07;16.50;99.90
23520;DHT22;11936;50.820;4.336;2022-10-26T02:46:45;16.60;99.90
23520;DHT22;11936;50.820;4.336;2022-10-26T02:49:11;16.70;99.90
23520;DHT22;11936;50.820;4.336;2022-10-26T02:52:00;16.60;99.90
23520;DHT22;11936;50.820;4.336;2022-10-26T02:54:39;16.70;99.90
23520;DHT22;11936;50.820;4.336;2022-10-26T02:57:33;16.70;99.90
23520;DHT22;11936;50.820;4.336;2022-10-26T02:59:59;16.80;99.90
23520;DHT22;11936;50.820;4.336;2022-10-26T03:02:26;16.80;99.90
23520;DHT22;11936;50.820;4.336;2022-10-26T03:05:06;16.80;99.90
23520;DHT22;11936;50.820;4.336;2022-10-26T03:07:39;16.90;99.90
23520;DHT22;11936;50.820;4.336;2022-10-26T03:10:05;16.90;99.90
23520;DHT22;11936;50.820;4.336;2022-10-26T03:12:31;16.90;99.90
23520;DHT22;11936;50.820;4.336;2022-10-26T03:14:57;16.90;99.90
23520;DHT22;11936;50.820;4.336;2022-10-26T03:17:22;16.90;99.90
23520;DHT22;11936;50.820;4.336;2022-10-26T03:19:48;16.90;99.90
23520;DHT22;11936;50.820;4.336;2022-10-26T03:22:13;16.90;99.90
23520;DHT22;11936;50.820;4.336;2022-10-26T03:24:39;16.90;99.90
23520;DHT22;11936;50.820;4.336;2022-10-26T03:27:04;16.80;99.90
23520;DHT22;11936;50.820;4.336;2022-10-26T03:29:30;16.90;99.90
23520;DHT22;11936;50.820;4.336;2022-10-26T03:32:09;16.90;99.90
23520;DHT22;11936;50.820;4.336;2022-10-26T03:37:38;16.90;99.90
23520;DHT22;11936;50.820;4.336;2022-10-26T03:40:19;16.80;99.90
23520;DHT22;11936;50.820;4.336;2022-10-26T03:43:04;16.80;99.90
23520;DHT22;11936;50.820;4.336;2022-10-26T03:45:44;16.80;99.90
23520;DHT22;11936;50.820;4.336;2022-10-26T03:48:25;16.70;99.90
23520;DHT22;11936;50.820;4.336;2022-10-26T03:50:50;16.80;99.90
23520;DHT22;11936;50.820;4.336;2022-10-26T03:53:22;16.80;99.90
23520;DHT22;11936;50.820;4.336;2022-10-26T03:55:47;16.90;99.90
23520;DHT22;11936;50.820;4.336;2022-10-26T03:58:13;16.70;99.90
23520;DHT22;11936;50.820;4.336;2022-10-26T04:00:59;16.60;99.90
23520;DHT22;11936;50.820;4.336;2022-10-26T04:03:24;16.50;99.90
23520;DHT22;11936;50.820;4.336;2022-10-26T04:05:50;16.60;99.90
23520;DHT22;11936;50.820;4.336;2022-10-26T04:08:16;16.50;99.90
23520;DHT22;11936;50.820;4.336;2022-10-26T04:10:58;16.50;99.90
23520;DHT22;11936;50.820;4.336;2022-10-26T04:13:38;16.50;99.90
23520;DHT22;11936;50.820;4.336;2022-10-26T04:16:33;16.50;99.90
23520;DHT22;11936;50.820;4.336;2022-10-26T04:18:59;16.50;99.90
23520;DHT22;11936;50.820;4.336;2022-10-26T04:21:27;16.40;99.90
23520;DHT22;11936;50.820;4.336;2022-10-26T04:24:09;16.40;99.90
23520;DHT22;11936;50.820;4.336;2022-10-26T04:26:36;16.40;99.90
23520;DHT22;11936;50.820;4.336;2022-10-26T04:31:40;16.20;99.90
23520;DHT22;11936;50.820;4.336;2022-10-26T04:34:06;16.30;99.90
23520;DHT22;11936;50.820;4.336;2022-10-26T04:36:32;16.30;99.90
23520;DHT22;11936;50.820;4.336;2022-10-26T04:38:58;16.20;99.90
23520;DHT22;11936;50.820;4.336;2022-10-26T04:41:24;16.40;99.90
23520;DHT22;11936;50.820;4.336;2022-10-26T04:43:50;16.40;99.90
23520;DHT22;11936;50.820;4.336;2022-10-26T04:46:15;16.40;99.90
23520;DHT22;11936;50.820;4.336;2022-10-26T04:48:41;16.50;99.90
23520;DHT22;11936;50.820;4.336;2022-10-26T04:51:06;16.60;99.90
23520;DHT22;11936;50.820;4.336;2022-10-26T04:53:32;16.70;99.90
23520;DHT22;11936;50.820;4.336;2022-10-26T04:55:59;16.80;99.90
23520;DHT22;11936;50.820;4.336;2022-10-26T04:58:26;16.80;99.90
23520;DHT22;11936;50.820;4.336;2022-10-26T05:00:52;16.80;99.90
23520;DHT22;11936;50.820;4.336;2022-10-26T05:03:18;16.70;99.90
23520;DHT22;11936;50.820;4.336;2022-10-26T05:05:49;16.80;99.90
23520;DHT22;11936;50.820;4.336;2022-10-26T05:08:15;16.70;99.90
23520;DHT22;11936;50.820;4.336;2022-10-26T05:10:48;16.70;99.90
23520;DHT22;11936;50.820;4.336;2022-10-26T05:13:14;16.60;99.90
23520;DHT22;11936;50.820;4.336;2022-10-26T05:16:01;16.50;99.90
23520;DHT22;11936;50.820;4.336;2022-10-26T05:18:26;16.60;99.90
23520;DHT22;11936;50.820;4.336;2022-10-26T05:20:55;16.60;99.90
23520;DHT22;11936;50.820;4.336;2022-10-26T05:23:36;16.60;99.90
23520;DHT22;11936;50.820;4.336;2022-10-26T05:26:02;16.70;99.90
23520;DHT22;11936;50.820;4.336;2022-10-26T05:28:27;16.70;99.90
23520;DHT22;11936;50.820;4.336;2022-10-26T05:30:53;16.60;99.90
23520;DHT22;11936;50.820;4.336;2022-10-26T05:33:18;16.70;99.90
23520;DHT22;11936;50.820;4.336;2022-10-26T05:35:44;16.50;99.90
23520;DHT22;11936;50.820;4.336;2022-10-26T05:38:13;16.50;99.90
23520;DHT22;11936;50.820;4.336;2022-10-26T05:40:48;16.40;99.90
23520;DHT22;11936;50.820;4.336;2022-10-26T05:43:15;16.50;99.90
23520;DHT22;11936;50.820;4.336;2022-10-26T05:45:40;16.50;99.90
23520;DHT22;11936;50.820;4.336;2022-10-26T05:48:06;16.70;99.90
23520;DHT22;11936;50.820;4.336;2022-10-26T05:50:31;16.70;99.90
23520;DHT22;11936;50.820;4.336;2022-10-26T05:52:57;16.70;99.90
23520;DHT22;11936;50.820;4.336;2022-10-26T05:55:23;16.70;99.90
23520;DHT22;11936;50.820;4.336;2022-10-26T05:57:49;16.50;99.90
23520;DHT22;11936;50.820;4.336;2022-10-26T06:00:20;16.40;99.90
23520;DHT22;11936;50.820;4.336;2022-10-26T06:05:17;16.30;99.90
23520;DHT22;11936;50.820;4.336;2022-10-26T06:07:43;16.30;99.90
23520;DHT22;11936;50.820;4.336;2022-10-26T06:10:10;16.40;99.90
23520;DHT22;11936;50.820;4.336;2022-10-26T06:12:36;16.40;99.90
23520;DHT22;11936;50.820;4.336;2022-10-26T06:15:02;16.50;99.90
23520;DHT22;11936;50.820;4.336;2022-10-26T06:25:21;16.30;99.90
23520;DHT22;11936;50.820;4.336;2022-10-26T06:28:07;16.30;99.90
23520;DHT22;11936;50.820;4.336;2022-10-26T06:30:39;16.30;99.90
23520;DHT22;11936;50.820;4.336;2022-10-26T06:33:05;16.30;99.90
23520;DHT22;11936;50.820;4.336;2022-10-26T06:38:08;16.30;99.90
23520;DHT22;11936;50.820;4.336;2022-10-26T06:40:37;16.30;99.90
23520;DHT22;11936;50.820;4.336;2022-10-26T06:43:12;16.40;99.90
23520;DHT22;11936;50.820;4.336;2022-10-26T06:45:41;16.40;99.90
23520;DHT22;11936;50.820;4.336;2022-10-26T06:48:09;16.40;99.90
23520;DHT22;11936;50.820;4.336;2022-10-26T06:53:22;16.40;99.90
23520;DHT22;11936;50.820;4.336;2022-10-26T06:55:50;16.30;99.90
23520;DHT22;11936;50.820;4.336;2022-10-26T06:58:18;16.30;99.90
23520;DHT22;11936;50.820;4.336;2022-10-26T07:00:47;16.20;99.90
23520;DHT22;11936;50.820;4.336;2022-10-26T07:03:13;16.40;99.90
23520;DHT22;11936;50.820;4.336;2022-10-26T07:05:39;16.40;99.90
23520;DHT22;11936;50.820;4.336;2022-10-26T07:08:05;16.40;99.90
23520;DHT22;11936;50.820;4.336;2022-10-26T07:10:31;16.30;99.90
23520;DHT22;11936;50.820;4.336;2022-10-26T07:12:56;16.30;99.90
23520;DHT22;11936;50.820;4.336;2022-10-26T07:15:22;16.30;99.90
23520;DHT22;11936;50.820;4.336;2022-10-26T07:17:48;16.30;99.90
23520;DHT22;11936;50.820;4.336;2022-10-26T07:20:16;16.40;99.90
23520;DHT22;11936;50.820;4.336;2022-10-26T07:22:42;16.40;99.90
23520;DHT22;11936;50.820;4.336;2022-10-26T07:25:08;16.30;99.90
23520;DHT22;11936;50.820;4.336;2022-10-26T07:27:34;16.30;99.90
23520;DHT22;11936;50.820;4.336;2022-10-26T07:30:00;16.30;99.90
23520;DHT22;11936;50.820;4.336;2022-10-26T07:32:26;16.40;99.90
23520;DHT22;11936;50.820;4.336;2022-10-26T07:34:52;16.40;99.90
23520;DHT22;11936;50.820;4.336;2022-10-26T07:37:17;16.40;99.90
23520;DHT22;11936;50.820;4.336;2022-10-26T07:39:43;16.40;99.90
23520;DHT22;11936;50.820;4.336;2022-10-26T07:42:08;16.40;99.90
23520;DHT22;11936;50.820;4.336;2022-10-26T07:44:34;16.50;99.90
23520;DHT22;11936;50.820;4.336;2022-10-26T07:47:00;16.60;99.90
23520;DHT22;11936;50.820;4.336;2022-10-26T07:49:25;16.60;99.90
23520;DHT22;11936;50.820;4.336;2022-10-26T07:52:09;16.60;99.90
23520;DHT22;11936;50.820;4.336;2022-10-26T07:54:35;16.60;99.90
23520;DHT22;11936;50.820;4.336;2022-10-26T07:57:00;16.60;99.90
23520;DHT22;11936;50.820;4.336;2022-10-26T07:59:26;16.60;99.90
23520;DHT22;11936;50.820;4.336;2022-10-26T08:01:52;16.60;99.90
23520;DHT22;11936;50.820;4.336;2022-10-26T08:04:18;16.70;99.90
23520;DHT22;11936;50.820;4.336;2022-10-26T08:06:43;16.60;99.90
23520;DHT22;11936;50.820;4.336;2022-10-26T08:09:09;16.60;99.90
23520;DHT22;11936;50.820;4.336;2022-10-26T08:11:34;16.60;99.90
23520;DHT22;11936;50.820;4.336;2022-10-26T08:14:02;16.60;99.90
23520;DHT22;11936;50.820;4.336;2022-10-26T08:16:28;16.50;99.90
23520;DHT22;11936;50.820;4.336;2022-10-26T08:18:54;16.40;99.90
23520;DHT22;11936;50.820;4.336;2022-10-26T08:21:19;16.50;99.90
23520;DHT22;11936;50.820;4.336;2022-10-26T08:23:45;16.70;99.90
23520;DHT22;11936;50.820;4.336;2022-10-26T08:26:11;16.70;99.90
23520;DHT22;11936;50.820;4.336;2022-10-26T08:28:37;16.70;99.90
23520;DHT22;11936;50.820;4.336;2022-10-26T08:31:03;16.80;99.90
23520;DHT22;11936;50.820;4.336;2022-10-26T08:33:29;16.80;99.90
23520;DHT22;11936;50.820;4.336;2022-10-26T08:35:59;16.90;99.90
23520;DHT22;11936;50.820;4.336;2022-10-26T08:38:25;16.90;99.90
23520;DHT22;11936;50.820;4.336;2022-10-26T08:40:51;16.80;99.90
23520;DHT22;11936;50.820;4.336;2022-10-26T08:43:25;16.90;99.90
23520;DHT22;11936;50.820;4.336;2022-10-26T08:48:36;17.00;99.90
23520;DHT22;11936;50.820;4.336;2022-10-26T08:51:28;17.10;99.90
23520;DHT22;11936;50.820;4.336;2022-10-26T08:54:03;17.20;99.90
23520;DHT22;11936;50.820;4.336;2022-10-26T09:01:54;17.20;99.90
23520;DHT22;11936;50.820;4.336;2022-10-26T09:04:25;17.20;99.90
23520;DHT22;11936;50.820;4.336;2022-10-26T09:06:55;17.20;99.90
23520;DHT22;11936;50.820;4.336;2022-10-26T09:09:44;17.30;99.90
23520;DHT22;11936;50.820;4.336;2022-10-26T09:12:44;17.40;99.90
23520;DHT22;11936;50.820;4.336;2022-10-26T09:18:37;17.50;99.90
23520;DHT22;11936;50.820;4.336;2022-10-26T09:21:21;17.50;99.90
23520;DHT22;11936;50.820;4.336;2022-10-26T09:29:13;17.60;99.90
23520;DHT22;11936;50.820;4.336;2022-10-26T09:31:41;17.60;99.90
23520;DHT22;11936;50.820;4.336;2022-10-26T09:37:35;17.70;99.90
23520;DHT22;11936;50.820;4.336;2022-10-26T09:46:03;17.80;99.90
23520;DHT22;11936;50.820;4.336;2022-10-26T09:48:39;17.80;99.90
23520;DHT22;11936;50.820;4.336;2022-10-26T09:51:06;17.90;99.90
23520;DHT22;11936;50.820;4.336;2022-10-26T09:53:32;17.90;99.90
23520;DHT22;11936;50.820;4.336;2022-10-26T09:56:07;18.00;99.90
23520;DHT22;11936;50.820;4.336;2022-10-26T09:58:43;18.00;99.90
23520;DHT22;11936;50.820;4.336;2022-10-26T10:01:29;18.00;99.90
23520;DHT22;11936;50.820;4.336;2022-10-26T10:06:42;18.20;99.90
23520;DHT22;11936;50.820;4.336;2022-10-26T10:14:20;18.30;99.90
23520;DHT22;11936;50.820;4.336;2022-10-26T10:19:25;18.30;99.90
23520;DHT22;11936;50.820;4.336;2022-10-26T10:21:54;18.40;99.90
23520;DHT22;11936;50.820;4.336;2022-10-26T10:27:01;18.50;99.90
23520;DHT22;11936;50.820;4.336;2022-10-26T10:29:32;18.60;99.90
23520;DHT22;11936;50.820;4.336;2022-10-26T10:32:00;18.70;99.90
23520;DHT22;11936;50.820;4.336;2022-10-26T10:34:28;18.60;99.90
23520;DHT22;11936;50.820;4.336;2022-10-26T10:36:54;18.50;99.90
23520;DHT22;11936;50.820;4.336;2022-10-26T10:39:39;18.50;99.90
23520;DHT22;11936;50.820;4.336;2022-10-26T10:42:16;18.50;99.90
23520;DHT22;11936;50.820;4.336;2022-10-26T10:44:43;18.50;99.90
23520;DHT22;11936;50.820;4.336;2022-10-26T10:47:20;18.40;99.90
23520;DHT22;11936;50.820;4.336;2022-10-26T10:49:53;18.40;99.90
23520;DHT22;11936;50.820;4.336;2022-10-26T10:52:28;18.40;99.90
23520;DHT22;11936;50.820;4.336;2022-10-26T10:55:16;18.50;99.90
23520;DHT22;11936;50.820;4.336;2022-10-26T11:00:20;18.40;99.90
23520;DHT22;11936;50.820;4.336;2022-10-26T11:03:26;18.40;99.90
23520;DHT22;11936;50.820;4.336;2022-10-26T11:06:05;18.40;99.90
23520;DHT22;11936;50.820;4.336;2022-10-26T11:08:54;18.40;99.90
23520;DHT22;11936;50.820;4.336;2022-10-26T11:11:26;18.40;99.90
23520;DHT22;11936;50.820;4.336;2022-10-26T11:13:59;18.40;99.90
23520;DHT22;11936;50.820;4.336;2022-10-26T11:16:34;18.50;99.90
23520;DHT22;11936;50.820;4.336;2022-10-26T11:19:28;18.60;99.90
23520;DHT22;11936;50.820;4.336;2022-10-26T11:21:55;18.60;99.90
23520;DHT22;11936;50.820;4.336;2022-10-26T11:27:15;18.50;99.90
23520;DHT22;11936;50.820;4.336;2022-10-26T11:30:04;18.50;99.90
23520;DHT22;11936;50.820;4.336;2022-10-26T11:35:31;18.60;99.90
23520;DHT22;11936;50.820;4.336;2022-10-26T11:38:19;18.50;99.90
23520;DHT22;11936;50.820;4.336;2022-10-26T11:45:45;18.70;99.90
23520;DHT22;11936;50.820;4.336;2022-10-26T11:48:19;18.70;99.90
23520;DHT22;11936;50.820;4.336;2022-10-26T11:50:51;18.80;99.90
23520;DHT22;11936;50.820;4.336;2022-10-26T11:53:20;18.80;99.90
23520;DHT22;11936;50.820;4.336;2022-10-26T11:55:51;18.70;99.90
23520;DHT22;11936;50.820;4.336;2022-10-26T11:58:17;18.80;99.90
23520;DHT22;11936;50.820;4.336;2022-10-26T12:00:49;18.90;99.90
23520;DHT22;11936;50.820;4.336;2022-10-26T12:03:18;18.80;99.90
23520;DHT22;11936;50.820;4.336;2022-10-26T12:05:50;18.80;99.90
23520;DHT22;11936;50.820;4.336;2022-10-26T12:13:44;19.00;99.90
23520;DHT22;11936;50.820;4.336;2022-10-26T12:19:00;19.00;99.90
23520;DHT22;11936;50.820;4.336;2022-10-26T12:21:29;19.10;99.90
23520;DHT22;11936;50.820;4.336;2022-10-26T12:27:25;19.10;99.90
23520;DHT22;11936;50.820;4.336;2022-10-26T12:37:54;19.40;99.90
23520;DHT22;11936;50.820;4.336;2022-10-26T12:45:39;19.40;99.90
23520;DHT22;11936;50.820;4.336;2022-10-26T12:48:39;19.50;99.90
23520;DHT22;11936;50.820;4.336;2022-10-26T12:56:59;19.50;99.90
23520;DHT22;11936;50.820;4.336;2022-10-26T12:59:35;19.60;99.90
23520;DHT22;11936;50.820;4.336;2022-10-26T13:05:56;19.70;99.90
23520;DHT22;11936;50.820;4.336;2022-10-26T13:08:22;19.70;99.90
23520;DHT22;11936;50.820;4.336;2022-10-26T13:11:27;19.60;99.90
23520;DHT22;11936;50.820;4.336;2022-10-26T13:13:56;19.60;99.90
23520;DHT22;11936;50.820;4.336;2022-10-26T13:16:23;19.70;99.90
23520;DHT22;11936;50.820;4.336;2022-10-26T13:18:49;19.70;99.90
23520;DHT22;11936;50.820;4.336;2022-10-26T13:21:16;19.70;99.90
23520;DHT22;11936;50.820;4.336;2022-10-26T13:26:20;19.70;99.90
23520;DHT22;11936;50.820;4.336;2022-10-26T13:29:06;19.70;99.90
23520;DHT22;11936;50.820;4.336;2022-10-26T13:34:17;19.80;99.90
23520;DHT22;11936;50.820;4.336;2022-10-26T13:39:40;19.90;99.90
23520;DHT22;11936;50.820;4.336;2022-10-26T13:42:14;19.80;99.90
23520;DHT22;11936;50.820;4.336;2022-10-26T13:44:53;19.80;99.90
23520;DHT22;11936;50.820;4.336;2022-10-26T13:47:27;19.70;99.90
23520;DHT22;11936;50.820;4.336;2022-10-26T13:49:56;19.80;99.90
23520;DHT22;11936;50.820;4.336;2022-10-26T13:52:32;19.80;99.90
23520;DHT22;11936;50.820;4.336;2022-10-26T14:00:58;20.00;99.90
23520;DHT22;11936;50.820;4.336;2022-10-26T14:03:25;20.00;99.90
23520;DHT22;11936;50.820;4.336;2022-10-26T14:05:51;19.90;99.90
23520;DHT22;11936;50.820;4.336;2022-10-26T14:08:18;19.90;99.90
23520;DHT22;11936;50.820;4.336;2022-10-26T14:10:56;19.80;99.90
23520;DHT22;11936;50.820;4.336;2022-10-26T14:13:24;19.90;99.90
23520;DHT22;11936;50.820;4.336;2022-10-26T14:15:52;20.00;99.90
23520;DHT22;11936;50.820;4.336;2022-10-26T14:18:21;20.00;99.90
23520;DHT22;11936;50.820;4.336;2022-10-26T14:21:20;20.10;99.90
23520;DHT22;11936;50.820;4.336;2022-10-26T14:23:55;20.10;99.90
23520;DHT22;11936;50.820;4.336;2022-10-26T14:26:27;20.10;99.90
23520;DHT22;11936;50.820;4.336;2022-10-26T14:28:58;20.10;99.90
23520;DHT22;11936;50.820;4.336;2022-10-26T14:31:29;20.20;99.90
23520;DHT22;11936;50.820;4.336;2022-10-26T14:33:56;20.10;99.90
23520;DHT22;11936;50.820;4.336;2022-10-26T14:37:13;20.20;99.90
23520;DHT22;11936;50.820;4.336;2022-10-26T14:42:11;20.40;99.90
23520;DHT22;11936;50.820;4.336;2022-10-26T14:44:38;20.40;99.90
23520;DHT22;11936;50.820;4.336;2022-10-26T14:47:12;20.50;99.90
23520;DHT22;11936;50.820;4.336;2022-10-26T14:49:44;20.50;99.90
23520;DHT22;11936;50.820;4.336;2022-10-26T14:52:15;20.60;99.90
23520;DHT22;11936;50.820;4.336;2022-10-26T14:54:56;20.60;99.90
23520;DHT22;11936;50.820;4.336;2022-10-26T14:57:38;20.50;99.90
23520;DHT22;11936;50.820;4.336;2022-10-26T15:00:24;20.50;99.90
23520;DHT22;11936;50.820;4.336;2022-10-26T15:02:52;20.50;99.90
23520;DHT22;11936;50.820;4.336;2022-10-26T15:07:51;20.30;99.90
23520;DHT22;11936;50.820;4.336;2022-10-26T15:15:45;20.30;99.90
23520;DHT22;11936;50.820;4.336;2022-10-26T15:20:49;20.20;99.90
23520;DHT22;11936;50.820;4.336;2022-10-26T15:23:15;20.20;99.90
23520;DHT22;11936;50.820;4.336;2022-10-26T15:25:51;20.20;99.90
23520;DHT22;11936;50.820;4.336;2022-10-26T15:28:39;20.10;99.90
23520;DHT22;11936;50.820;4.336;2022-10-26T15:36:29;20.20;99.90
23520;DHT22;11936;50.820;4.336;2022-10-26T15:38:56;20.10;99.90
23520;DHT22;11936;50.820;4.336;2022-10-26T15:41:34;20.10;99.90
23520;DHT22;11936;50.820;4.336;2022-10-26T15:44:05;20.00;99.90
23520;DHT22;11936;50.820;4.336;2022-10-26T15:46:33;20.00;99.90
23520;DHT22;11936;50.820;4.336;2022-10-26T15:49:00;19.90;99.90
23520;DHT22;11936;50.820;4.336;2022-10-26T15:51:27;19.90;99.90
23520;DHT22;11936;50.820;4.336;2022-10-26T15:53:56;19.80;99.90
23520;DHT22;11936;50.820;4.336;2022-10-26T15:56:23;19.80;99.90
23520;DHT22;11936;50.820;4.336;2022-10-26T15:58:49;19.80;99.90
23520;DHT22;11936;50.820;4.336;2022-10-26T16:01:20;19.70;99.90
23520;DHT22;11936;50.820;4.336;2022-10-26T16:03:46;19.80;99.90
23520;DHT22;11936;50.820;4.336;2022-10-26T16:06:28;19.80;99.90
23520;DHT22;11936;50.820;4.336;2022-10-26T16:08:59;19.80;99.90
23520;DHT22;11936;50.820;4.336;2022-10-26T16:11:26;19.80;99.90
23520;DHT22;11936;50.820;4.336;2022-10-26T16:13:52;19.80;99.90
23520;DHT22;11936;50.820;4.336;2022-10-26T16:16:18;19.80;99.90
23520;DHT22;11936;50.820;4.336;2022-10-26T16:18:45;19.70;99.90
23520;DHT22;11936;50.820;4.336;2022-10-26T16:21:16;19.70;99.90
23520;DHT22;11936;50.820;4.336;2022-10-26T16:23:44;19.60;99.90
23520;DHT22;11936;50.820;4.336;2022-10-26T16:26:10;19.60;99.90
23520;DHT22;11936;50.820;4.336;2022-10-26T16:28:36;19.60;99.90
23520;DHT22;11936;50.820;4.336;2022-10-26T16:31:04;19.60;99.90
23520;DHT22;11936;50.820;4.336;2022-10-26T16:33:30;19.50;99.90
23520;DHT22;11936;50.820;4.336;2022-10-26T16:35:57;19.50;99.90
23520;DHT22;11936;50.820;4.336;2022-10-26T16:38:23;19.40;99.90
23520;DHT22;11936;50.820;4.336;2022-10-26T16:40:49;19.50;99.90
23520;DHT22;11936;50.820;4.336;2022-10-26T16:43:15;19.50;99.90
23520;DHT22;11936;50.820;4.336;2022-10-26T16:45:40;19.40;99.90
23520;DHT22;11936;50.820;4.336;2022-10-26T16:48:07;19.40;99.90
23520;DHT22;11936;50.820;4.336;2022-10-26T16:50:38;19.40;99.90
23520;DHT22;11936;50.820;4.336;2022-10-26T16:53:04;19.40;99.90
23520;DHT22;11936;50.820;4.336;2022-10-26T16:55:30;19.30;99.90
23520;DHT22;11936;50.820;4.336;2022-10-26T16:57:55;19.30;99.90
23520;DHT22;11936;50.820;4.336;2022-10-26T17:00:21;19.30;99.90
23520;DHT22;11936;50.820;4.336;2022-10-26T17:02:46;19.30;99.90
23520;DHT22;11936;50.820;4.336;2022-10-26T17:05:12;19.30;99.90
23520;DHT22;11936;50.820;4.336;2022-10-26T17:07:37;19.30;99.90
23520;DHT22;11936;50.820;4.336;2022-10-26T17:10:03;19.30;99.90
23520;DHT22;11936;50.820;4.336;2022-10-26T17:12:29;19.30;99.90
23520;DHT22;11936;50.820;4.336;2022-10-26T17:14:55;19.20;99.90
23520;DHT22;11936;50.820;4.336;2022-10-26T17:17:23;19.20;99.90
23520;DHT22;11936;50.820;4.336;2022-10-26T17:19:49;19.30;99.90
23520;DHT22;11936;50.820;4.336;2022-10-26T17:22:14;19.30;99.90
23520;DHT22;11936;50.820;4.336;2022-10-26T17:24:40;19.20;99.90
23520;DHT22;11936;50.820;4.336;2022-10-26T17:27:06;19.20;99.90
23520;DHT22;11936;50.820;4.336;2022-10-26T17:29:31;19.20;99.90
23520;DHT22;11936;50.820;4.336;2022-10-26T17:31:57;19.20;99.90
23520;DHT22;11936;50.820;4.336;2022-10-26T17:34:22;19.20;99.90
23520;DHT22;11936;50.820;4.336;2022-10-26T17:36:48;19.30;99.90
23520;DHT22;11936;50.820;4.336;2022-10-26T17:39:13;19.30;99.90
23520;DHT22;11936;50.820;4.336;2022-10-26T17:41:40;19.30;99.90
23520;DHT22;11936;50.820;4.336;2022-10-26T17:44:08;19.30;99.90
23520;DHT22;11936;50.820;4.336;2022-10-26T17:46:34;19.30;99.90
23520;DHT22;11936;50.820;4.336;2022-10-26T17:49:00;19.30;99.90
23520;DHT22;11936;50.820;4.336;2022-10-26T17:51:27;19.30;99.90
23520;DHT22;11936;50.820;4.336;2022-10-26T17:53:53;19.30;99.90
23520;DHT22;11936;50.820;4.336;2022-10-26T17:56:25;19.30;99.90
23520;DHT22;11936;50.820;4.336;2022-10-26T17:59:04;19.30;99.90
23520;DHT22;11936;50.820;4.336;2022-10-26T18:01:30;19.30;99.90
23520;DHT22;11936;50.820;4.336;2022-10-26T18:03:56;19.30;99.90
23520;DHT22;11936;50.820;4.336;2022-10-26T18:06:23;19.30;99.90
23520;DHT22;11936;50.820;4.336;2022-10-26T18:08:48;19.30;99.90
23520;DHT22;11936;50.820;4.336;2022-10-26T18:11:17;19.30;99.90
23520;DHT22;11936;50.820;4.336;2022-10-26T18:13:43;19.30;99.90
23520;DHT22;11936;50.820;4.336;2022-10-26T18:16:14;19.20;99.90
23520;DHT22;11936;50.820;4.336;2022-10-26T18:18:41;19.10;99.90
23520;DHT22;11936;50.820;4.336;2022-10-26T18:21:11;19.10;99.90
23520;DHT22;11936;50.820;4.336;2022-10-26T18:23:37;19.10;99.90
23520;DHT22;11936;50.820;4.336;2022-10-26T18:26:05;19.10;99.90
23520;DHT22;11936;50.820;4.336;2022-10-26T18:28:32;19.00;99.90
23520;DHT22;11936;50.820;4.336;2022-10-26T18:31:03;19.00;99.90
23520;DHT22;11936;50.820;4.336;2022-10-26T18:33:29;19.00;99.90
23520;DHT22;11936;50.820;4.336;2022-10-26T18:36:00;19.00;99.90
23520;DHT22;11936;50.820;4.336;2022-10-26T18:38:25;18.90;99.90
23520;DHT22;11936;50.820;4.336;2022-10-26T18:40:51;18.90;99.90
23520;DHT22;11936;50.820;4.336;2022-10-26T18:43:18;18.90;99.90
23520;DHT22;11936;50.820;4.336;2022-10-26T18:45:43;18.90;99.90
23520;DHT22;11936;50.820;4.336;2022-10-26T18:48:09;18.90;99.90
23520;DHT22;11936;50.820;4.336;2022-10-26T18:50:34;18.90;99.90
23520;DHT22;11936;50.820;4.336;2022-10-26T18:53:00;18.90;99.90